Time;durP1;ratioP1;P1;durP2;ratioP2;P2;SDS_P1;SDS_P2;PMS_P1;PMS_P2;Temp;Humidity;BMP_temperature;BMP_pressure;BME280_temperature;BME280_humidity;BME280_pressure;Samples;Min_cycle;Max_cycle;Signal;HPM_P1;HPM_P2
2020/12/01 00:01:08;;;;;;;0.30;0.30;;;;;;;2.72;87.68;100132.44;5104106;28;20038;-63
2020/12/01 00:03:34;;;;;;;0.30;0.30;;;;;;;2.70;87.92;100138.38;5103958;28;20031;-63
2020/12/01 00:05:59;;;;;;;0.30;0.30;;;;;;;2.66;88.05;100127.19;5102699;28;20028;-62
2020/12/01 00:08:24;;;;;;;0.30;0.30;;;;;;;2.73;87.75;100135.88;5103727;28;20027;-62
2020/12/01 00:10:50;;;;;;;0.30;0.30;;;;;;;2.75;87.91;100146.16;5104102;28;20012;-62
2020/12/01 00:13:15;;;;;;;0.30;0.30;;;;;;;2.70;88.16;100136.66;5103793;28;20024;-64
2020/12/01 00:15:40;;;;;;;0.22;0.22;;;;;;;2.76;87.89;100132.50;5103759;28;20015;-63
2020/12/01 00:18:06;;;;;;;0.30;0.30;;;;;;;2.75;87.88;100141.88;5103711;28;20063;-63
2020/12/01 00:20:31;;;;;;;0.30;0.30;;;;;;;2.76;87.96;100137.63;5103641;28;20032;-63
2020/12/01 00:22:56;;;;;;;0.30;0.30;;;;;;;2.77;87.70;100139.34;5103883;28;20049;-62
2020/12/01 00:25:23;;;;;;;0.30;0.30;;;;;;;2.73;87.83;100143.56;5103488;28;20043;-63
2020/12/01 00:27:48;;;;;;;0.30;0.30;;;;;;;2.75;87.82;100138.47;5103625;28;20035;-61
2020/12/01 00:30:24;;;;;;;0.30;0.30;;;;;;;2.77;87.96;100135.09;5103578;28;20028;-64
2020/12/01 00:32:51;;;;;;;0.30;0.30;;;;;;;2.68;87.60;100109.28;5103754;28;20024;-62
2020/12/01 00:35:27;;;;;;;0.30;0.30;;;;;;;2.75;87.84;100129.06;5103469;28;20510;-62
2020/12/01 00:37:52;;;;;;;0.30;0.30;;;;;;;2.76;88.02;100137.63;5103582;28;20031;-63
2020/12/01 00:40:20;;;;;;;0.30;0.30;;;;;;;2.73;88.16;100138.44;5103261;28;20016;-64
2020/12/01 00:42:46;;;;;;;0.30;0.30;;;;;;;2.77;88.07;100139.34;5103566;28;20028;-63
2020/12/01 00:45:12;;;;;;;0.20;0.20;;;;;;;2.81;88.01;100146.28;5103399;28;20095;-63
2020/12/01 00:47:38;;;;;;;0.30;0.30;;;;;;;2.71;88.20;100146.09;5103254;28;20032;-63
2020/12/01 00:50:10;;;;;;;0.30;0.30;;;;;;;2.70;88.31;100141.78;5103201;28;20099;-63
2020/12/01 00:52:35;;;;;;;;;;;;;;;2.80;88.23;100149.66;5103893;28;20031;-62
2020/12/01 00:55:00;;;;;;;0.30;0.30;;;;;;;2.82;88.08;100148.00;5104612;28;20264;-62
2020/12/01 00:57:26;;;;;;;4.00;3.80;;;;;;;2.81;88.17;100146.28;5107415;28;20397;-63
2020/12/01 00:59:51;;;;;;;0.30;0.30;;;;;;;2.78;88.23;100151.34;5122929;28;20045;-63
2020/12/01 01:02:17;;;;;;;0.30;0.30;;;;;;;2.87;88.12;100154.09;5107663;28;20024;-63
2020/12/01 01:04:44;;;;;;;2.80;1.30;;;;;;;2.81;88.09;100156.53;5107321;28;20028;-62
2020/12/01 01:07:09;;;;;;;0.30;0.30;;;;;;;2.78;88.14;100152.19;5107347;28;20020;-64
2020/12/01 01:09:34;;;;;;;0.30;0.30;;;;;;;2.84;88.24;100170.25;5107158;28;20046;-63
2020/12/01 01:12:00;;;;;;;0.30;0.30;;;;;;;2.82;88.39;100166.81;5107446;28;20079;-64
2020/12/01 01:14:25;;;;;;;0.30;0.30;;;;;;;2.87;87.89;100155.78;5107164;28;20028;-64
2020/12/01 01:16:50;;;;;;;0.30;0.30;;;;;;;2.93;87.49;100161.03;5107176;28;20038;-64
2020/12/01 01:19:16;;;;;;;0.30;0.30;;;;;;;2.83;87.81;100170.22;5107172;28;20050;-64
2020/12/01 01:21:44;;;;;;;0.30;0.30;;;;;;;2.84;87.87;100167.69;5107000;28;20076;-64
2020/12/01 01:24:11;;;;;;;0.30;0.30;;;;;;;2.82;88.03;100173.66;5106928;28;20352;-63
2020/12/01 01:26:36;;;;;;;0.28;0.28;;;;;;;2.81;88.07;100177.06;5107347;28;20113;-63
2020/12/01 01:29:02;;;;;;;0.25;0.25;;;;;;;2.86;88.04;100183.13;5106964;28;20020;-63
2020/12/01 01:31:28;;;;;;;0.30;0.30;;;;;;;2.91;87.62;100189.19;5106924;28;20028;-63
2020/12/01 01:33:53;;;;;;;0.30;0.30;;;;;;;2.88;87.63;100189.16;5106713;28;20036;-63
2020/12/01 01:36:19;;;;;;;0.30;0.30;;;;;;;2.83;87.86;100190.75;5106907;28;20047;-63
2020/12/01 01:38:44;;;;;;;0.73;0.73;;;;;;;2.91;87.39;100191.78;5106547;28;20028;-63
2020/12/01 01:41:09;;;;;;;0.30;0.30;;;;;;;2.84;87.39;100197.63;5105894;28;20016;-63
2020/12/01 01:43:35;;;;;;;1.05;1.05;;;;;;;2.71;87.80;100192.25;5105795;28;20146;-63
2020/12/01 01:46:01;;;;;;;1.17;1.17;;;;;;;2.77;87.51;100182.94;5106607;28;20410;-64
2020/12/01 01:48:32;;;;;;;0.30;0.30;;;;;;;2.69;87.95;100186.22;5106486;28;20029;-63
2020/12/01 01:51:13;;;;;;;0.40;0.40;;;;;;;2.76;87.75;100194.03;5106625;28;20023;-62
2020/12/01 01:53:45;;;;;;;0.30;0.30;;;;;;;2.72;87.86;100199.09;5106139;28;20035;-63
2020/12/01 01:56:12;;;;;;;0.30;0.30;;;;;;;2.63;88.16;100195.47;5106675;28;20051;-63
2020/12/01 01:58:41;;;;;;;0.50;0.50;;;;;;;2.66;88.17;100196.41;5106078;28;20020;-63
2020/12/01 02:01:10;;;;;;;0.45;0.45;;;;;;;2.75;87.46;100205.13;5106334;28;20032;-63
2020/12/01 02:03:44;;;;;;;0.30;0.30;;;;;;;2.68;88.19;100206.69;5106314;28;20016;-63
2020/12/01 02:06:30;;;;;;;0.30;0.30;;;;;;;2.69;88.05;100213.53;5105636;28;20027;-63
2020/12/01 02:08:58;;;;;;;0.30;0.30;;;;;;;2.65;88.13;100206.63;5105940;28;20024;-63
2020/12/01 02:11:25;;;;;;;0.30;0.30;;;;;;;2.65;88.09;100215.16;5106292;28;20024;-62
2020/12/01 02:14:10;;;;;;;0.30;0.30;;;;;;;2.80;87.57;100206.94;5105916;28;20435;-62
2020/12/01 02:16:39;;;;;;;0.30;0.30;;;;;;;2.69;87.52;100219.56;5106009;28;20186;-62
2020/12/01 02:19:08;;;;;;;0.30;0.30;;;;;;;2.74;87.29;100224.78;5106085;28;20043;-62
2020/12/01 02:21:39;;;;;;;0.30;0.30;;;;;;;2.65;87.75;100225.41;5105843;28;20024;-62
2020/12/01 02:24:08;;;;;;;0.38;0.38;;;;;;;2.58;87.96;100221.88;5105751;28;20088;-62
2020/12/01 02:26:35;;;;;;;0.85;0.85;;;;;;;2.56;88.01;100220.09;5105429;28;20051;-62
2020/12/01 02:29:02;;;;;;;3.85;2.65;;;;;;;2.64;87.74;100226.28;5104753;28;20020;-63
2020/12/01 02:31:27;;;;;;;0.40;0.40;;;;;;;2.57;87.92;100219.28;5105227;28;20028;-62
2020/12/01 02:33:53;;;;;;;0.57;0.57;;;;;;;2.57;88.00;100216.72;5104544;28;20424;-63
2020/12/01 02:36:18;;;;;;;0.30;0.30;;;;;;;2.75;86.99;100229.06;5105550;28;20024;-62
2020/12/01 02:38:44;;;;;;;0.30;0.30;;;;;;;2.57;87.76;100226.97;5105274;28;20024;-63
2020/12/01 02:41:09;;;;;;;0.60;0.57;;;;;;;2.51;87.87;100219.16;5105799;28;20030;-63
2020/12/01 02:43:35;;;;;;;0.47;0.47;;;;;;;2.56;87.79;100220.09;5105447;28;20038;-63
2020/12/01 02:46:00;;;;;;;0.30;0.30;;;;;;;2.48;88.13;100225.94;5105389;28;20059;-63
2020/12/01 02:48:26;;;;;;;0.40;0.40;;;;;;;2.47;88.26;100233.59;5105179;28;20051;-63
2020/12/01 02:50:51;;;;;;;0.30;0.30;;;;;;;2.55;87.84;100237.19;5103957;28;20059;-63
2020/12/01 02:53:17;;;;;;;0.30;0.30;;;;;;;2.46;88.30;100245.53;5105106;28;20055;-61
2020/12/01 02:55:42;;;;;;;0.20;0.20;;;;;;;2.70;87.57;100236.66;5105198;28;20016;-63
2020/12/01 02:58:07;;;;;;;0.30;0.30;;;;;;;2.59;87.56;100241.56;5120933;28;20048;-63
2020/12/01 03:00:33;;;;;;;2.92;2.58;;;;;;;2.55;87.92;100251.72;5105264;28;20024;-62
2020/12/01 03:02:59;;;;;;;0.32;0.32;;;;;;;2.52;87.92;100254.19;5105200;28;20024;-62
2020/12/01 03:05:24;;;;;;;0.30;0.30;;;;;;;2.44;88.52;100260.03;5105041;28;20153;-63
2020/12/01 03:07:49;;;;;;;0.22;0.22;;;;;;;2.45;88.49;100261.75;5105006;28;20020;-63
2020/12/01 03:10:15;;;;;;;0.30;0.30;;;;;;;2.47;88.44;100264.34;5104793;28;20028;-63
2020/12/01 03:12:40;;;;;;;0.35;0.35;;;;;;;2.41;88.62;100259.94;5105081;28;20035;-61
2020/12/01 03:15:10;;;;;;;0.30;0.30;;;;;;;2.49;88.35;100257.56;5104837;28;20020;-63
2020/12/01 03:17:36;;;;;;;0.30;0.30;;;;;;;2.41;88.69;100262.50;5104381;28;20070;-62
2020/12/01 03:20:01;;;;;;;0.30;0.30;;;;;;;2.44;88.65;100270.28;5104075;28;20118;-62
2020/12/01 03:22:26;;;;;;;0.30;0.30;;;;;;;2.44;88.54;100267.72;5104680;28;20361;-62
2020/12/01 03:24:52;;;;;;;0.30;0.30;;;;;;;2.50;88.48;100266.09;5104581;28;20048;-63
2020/12/01 03:27:17;;;;;;;0.30;0.30;;;;;;;2.46;88.46;100267.75;5104663;28;20024;-63
2020/12/01 03:29:42;;;;;;;0.30;0.30;;;;;;;2.61;87.72;100267.22;5104442;28;20020;-62
2020/12/01 03:32:08;;;;;;;0.30;0.30;;;;;;;2.52;88.20;100273.00;5104709;28;20020;-62
2020/12/01 03:34:33;;;;;;;0.30;0.30;;;;;;;2.45;88.64;100282.25;5104357;28;20047;-62
2020/12/01 03:36:58;;;;;;;1.80;1.75;;;;;;;2.45;88.62;100289.94;5104401;28;20030;-63
2020/12/01 03:39:24;;;;;;;0.30;0.30;;;;;;;2.47;88.56;100298.53;5119839;28;20031;-63
2020/12/01 03:41:49;;;;;;;0.25;0.25;;;;;;;2.47;88.60;100297.66;5104376;28;20032;-63
2020/12/01 03:44:14;;;;;;;0.30;0.30;;;;;;;2.44;88.86;100295.91;5119808;28;20020;-63
2020/12/01 03:46:40;;;;;;;0.40;0.40;;;;;;;2.50;88.57;100305.41;5104284;28;20039;-63
2020/12/01 03:49:05;;;;;;;0.30;0.30;;;;;;;2.48;88.59;100305.38;5104263;28;20024;-63
2020/12/01 03:51:30;;;;;;;0.30;0.30;;;;;;;2.47;88.64;100310.47;5120119;28;20028;-64
2020/12/01 03:53:56;;;;;;;0.30;0.30;;;;;;;2.43;88.46;100309.53;5104058;28;20024;-63
2020/12/01 03:56:21;;;;;;;2.72;1.45;;;;;;;2.54;88.28;100314.06;5104279;28;20054;-63
2020/12/01 03:58:47;;;;;;;0.25;0.25;;;;;;;2.51;88.21;100325.09;5104014;28;20464;-63
2020/12/01 04:01:13;;;;;;;0.35;0.35;;;;;;;2.47;88.22;100324.16;5104276;28;20023;-63
2020/12/01 04:03:38;;;;;;;0.20;0.20;;;;;;;2.34;88.62;100317.00;5104047;28;20482;-63
2020/12/01 04:06:04;;;;;;;0.30;0.30;;;;;;;2.47;88.02;100315.59;5104340;28;20051;-63
2020/12/01 04:08:30;;;;;;;0.30;0.30;;;;;;;2.41;87.91;100326.56;5103682;28;20062;-63
2020/12/01 04:10:55;;;;;;;0.25;0.25;;;;;;;2.28;88.25;100321.97;5104018;28;20492;-63
2020/12/01 04:13:21;;;;;;;0.30;0.30;;;;;;;2.21;88.61;100319.28;5103877;28;20047;-63
2020/12/01 04:15:47;;;;;;;0.30;0.30;;;;;;;2.22;88.76;100331.25;5103646;28;20034;-62
2020/12/01 04:18:12;;;;;;;0.30;0.30;;;;;;;2.52;87.40;100329.41;5103919;28;20052;-63
2020/12/01 04:20:38;;;;;;;0.63;0.63;;;;;;;2.39;87.39;100332.47;5103834;28;20024;-63
2020/12/01 04:23:04;;;;;;;0.38;0.38;;;;;;;2.17;87.87;100337.09;5103726;28;20024;-62
2020/12/01 04:25:30;;;;;;;0.30;0.30;;;;;;;2.09;88.26;100340.31;5103601;28;20020;-62
2020/12/01 04:27:56;;;;;;;0.30;0.30;;;;;;;2.14;88.13;100343.00;5103787;28;20077;-62
2020/12/01 04:30:23;;;;;;;0.30;0.30;;;;;;;2.07;88.32;100342.00;5103456;28;20027;-62
2020/12/01 04:32:49;;;;;;;1.80;1.67;;;;;;;2.08;88.03;100342.84;5103624;28;20056;-64
2020/12/01 04:35:15;;;;;;;0.30;0.30;;;;;;;2.05;87.92;100345.31;5103285;28;20047;-63
2020/12/01 04:37:41;;;;;;;0.30;0.30;;;;;;;1.98;87.95;100345.16;5103510;28;20422;-63
2020/12/01 04:40:10;;;;;;;0.30;0.30;;;;;;;1.97;87.96;100348.56;5103527;28;20047;-63
2020/12/01 04:42:45;;;;;;;0.30;0.30;;;;;;;1.98;87.74;100350.28;5103684;28;20045;-63
2020/12/01 04:45:13;;;;;;;0.45;0.45;;;;;;;1.95;87.99;100362.16;5103679;28;20099;-62
2020/12/01 04:47:57;;;;;;;0.40;0.40;;;;;;;1.85;88.32;100372.13;5103300;28;20050;-62
2020/12/01 04:50:36;;;;;;;1.95;1.85;;;;;;;1.84;88.37;100374.66;5103491;28;20032;-62
2020/12/01 04:53:29;;;;;;;0.30;0.30;;;;;;;1.84;88.59;100382.34;5103443;28;20016;-64
2020/12/01 04:56:12;;;;;;;0.30;0.30;;;;;;;1.88;88.56;100390.97;5103635;28;20050;-63
2020/12/01 04:58:45;;;;;;;0.30;0.30;;;;;;;1.84;88.53;100400.25;5103427;28;20058;-63
2020/12/01 05:01:18;;;;;;;0.30;0.30;;;;;;;1.89;88.16;100403.81;5103538;28;20054;-63
2020/12/01 05:04:11;;;;;;;0.30;0.30;;;;;;;1.91;87.83;100407.28;5103361;28;20079;-63
2020/12/01 05:09:27;;;;;;;0.40;0.40;;;;;;;1.81;87.75;100420.66;5103061;28;20384;-62
2020/12/01 05:11:58;;;;;;;0.30;0.30;;;;;;;1.97;87.09;100420.25;5103729;28;20352;-62
2020/12/01 05:14:26;;;;;;;0.40;0.40;;;;;;;1.93;87.34;100423.53;5103355;28;20024;-62
2020/12/01 05:17:32;;;;;;;0.28;0.28;;;;;;;1.76;88.19;100433.31;5103101;28;20027;-63
2020/12/01 05:19:57;;;;;;;0.30;0.30;;;;;;;1.78;87.95;100430.81;5103159;28;20035;-63
2020/12/01 05:22:22;;;;;;;0.82;0.82;;;;;;;1.71;88.21;100435.75;5103235;28;20024;-63
2020/12/01 05:24:51;;;;;;;0.40;0.40;;;;;;;1.75;88.34;100430.72;5103026;28;20047;-62
2020/12/01 05:27:29;;;;;;;0.30;0.30;;;;;;;1.73;88.47;100439.25;5103058;28;20038;-62
2020/12/01 05:30:18;;;;;;;0.30;0.30;;;;;;;1.75;88.46;100446.97;5103189;28;20095;-62
2020/12/01 05:33:00;;;;;;;0.30;0.30;;;;;;;1.71;88.78;100450.28;5103246;28;20035;-62
2020/12/01 05:35:32;;;;;;;0.30;0.30;;;;;;;1.76;88.60;100458.06;5102910;28;20401;-62
2020/12/01 05:38:25;;;;;;;0.40;0.40;;;;;;;1.73;88.77;100463.97;5103011;28;20053;-62
2020/12/01 05:40:54;;;;;;;0.52;0.52;;;;;;;1.80;88.35;100465.00;5101789;28;20043;-62
2020/12/01 05:43:28;;;;;;;0.43;0.43;;;;;;;1.76;88.59;100473.44;5105347;28;20026;-62
2020/12/01 05:46:11;;;;;;;0.30;0.30;;;;;;;1.81;88.63;100476.97;5106313;28;20103;-62
2020/12/01 05:48:49;;;;;;;3.72;1.58;;;;;;;1.81;88.49;100482.09;5106588;28;20422;-63
2020/12/01 05:51:20;;;;;;;0.30;0.30;;;;;;;1.78;88.52;100482.00;5106656;28;20027;-62
2020/12/01 05:53:54;;;;;;;0.30;0.30;;;;;;;1.85;88.48;100483.94;5106193;28;20028;-63
2020/12/01 05:56:20;;;;;;;0.35;0.35;;;;;;;1.79;88.38;100488.88;5106639;28;20059;-63
2020/12/01 05:58:55;;;;;;;0.30;0.30;;;;;;;1.77;88.46;100483.72;5106325;28;20023;-62
2020/12/01 06:01:20;;;;;;;0.28;0.28;;;;;;;1.77;88.69;100495.63;5106468;28;20066;-62
2020/12/01 06:04:03;;;;;;;0.22;0.22;;;;;;;1.88;88.21;100490.81;5106419;28;20024;-63
2020/12/01 06:06:52;;;;;;;0.30;0.30;;;;;;;1.81;88.07;100489.78;5106614;28;20075;-63
2020/12/01 06:09:52;;;;;;;0.25;0.25;;;;;;;1.82;87.54;100500.06;5105837;28;20024;-61
2020/12/01 06:12:32;;;;;;;0.30;0.30;;;;;;;1.80;87.66;100490.59;5104728;28;20047;-63
2020/12/01 06:15:11;;;;;;;0.20;0.20;;;;;;;1.79;87.63;100504.25;5105978;28;20024;-64
2020/12/01 06:17:59;;;;;;;0.30;0.30;;;;;;;1.76;87.61;100514.41;5106054;28;20059;-63
2020/12/01 06:20:39;;;;;;;0.77;0.77;;;;;;;1.76;87.59;100522.06;5105936;28;20020;-63
2020/12/01 06:23:07;;;;;;;0.85;0.80;;;;;;;1.76;87.40;100529.75;5105629;28;20031;-62
2020/12/01 06:26:04;;;;;;;0.30;0.30;;;;;;;1.70;87.50;100530.41;5105724;28;20471;-62
2020/12/01 06:28:58;;;;;;;0.30;0.30;;;;;;;1.59;88.11;100535.22;5094106;28;20050;-63
2020/12/01 06:31:45;;;;;;;0.60;0.60;;;;;;;1.62;88.00;100548.09;5106177;28;20027;-63
2020/12/01 06:34:48;;;;;;;0.20;0.20;;;;;;;1.58;88.19;100541.16;5121548;28;20444;-64
2020/12/01 06:37:51;;;;;;;0.30;0.30;;;;;;;1.53;88.12;100558.94;5105919;28;20028;-64
2020/12/01 06:40:25;;;;;;;0.30;0.30;;;;;;;1.48;88.67;100568.16;5105583;28;20468;-64
2020/12/01 06:42:54;;;;;;;0.30;0.30;;;;;;;1.52;88.68;100569.13;5105587;28;20032;-64
2020/12/01 06:45:22;;;;;;;0.63;0.63;;;;;;;1.57;88.27;100565.00;5105785;28;20024;-63
2020/12/01 06:47:49;;;;;;;0.30;0.30;;;;;;;1.56;88.10;100565.84;5105240;28;20036;-63
2020/12/01 06:50:18;;;;;;;0.30;0.30;;;;;;;1.64;87.97;100566.06;5105463;28;20020;-63
2020/12/01 06:52:59;;;;;;;0.30;0.30;;;;;;;1.54;88.13;100565.78;5105329;28;20027;-64
2020/12/01 06:55:47;;;;;;;0.50;0.50;;;;;;;1.52;88.31;100579.38;5105200;28;20028;-63
2020/12/01 06:58:42;;;;;;;0.47;0.47;;;;;;;1.63;87.58;100588.22;5105234;28;20099;-63
2020/12/01 07:01:17;;;;;;;0.95;0.95;;;;;;;1.58;87.70;100593.19;5103160;28;20035;-63
2020/12/01 07:03:43;;;;;;;1.15;1.15;;;;;;;1.51;88.00;100595.53;5105390;28;20021;-63
2020/12/01 07:06:12;;;;;;;0.43;0.43;;;;;;;1.52;88.00;100603.25;5105456;28;20449;-63
2020/12/01 07:08:37;;;;;;;0.28;0.28;;;;;;;1.50;88.00;100602.34;5105015;28;20402;-64
2020/12/01 07:11:12;;;;;;;1.95;1.85;;;;;;;1.45;88.20;100604.72;5105593;28;20075;-63
2020/12/01 07:13:50;;;;;;;0.30;0.30;;;;;;;1.65;87.62;100614.75;5105167;28;20031;-63
2020/12/01 07:16:32;;;;;;;0.30;0.30;;;;;;;1.56;87.41;100620.44;5105200;28;20024;-64
2020/12/01 07:19:05;;;;;;;0.40;0.40;;;;;;;1.47;88.02;100626.13;5105177;28;20030;-63
2020/12/01 07:21:57;;;;;;;0.30;0.30;;;;;;;1.43;88.51;100638.78;5105033;28;20024;-62
2020/12/01 07:24:46;;;;;;;0.32;0.32;;;;;;;1.62;87.94;100647.91;5104872;28;20055;-63
2020/12/01 07:27:23;;;;;;;0.30;0.30;;;;;;;1.50;88.33;100656.09;5104987;28;20066;-62
2020/12/01 07:30:13;;;;;;;0.30;0.30;;;;;;;1.45;88.50;100663.56;5104781;28;20506;-63
2020/12/01 07:32:47;;;;;;;0.30;0.30;;;;;;;1.46;88.63;100664.47;5104980;28;20047;-63
2020/12/01 07:35:28;;;;;;;0.30;0.30;;;;;;;1.55;88.37;100664.75;5104431;28;20126;-65
2020/12/01 07:38:03;;;;;;;0.35;0.35;;;;;;;1.56;88.00;100673.31;5104655;28;20043;-63
2020/12/01 07:40:32;;;;;;;0.30;0.30;;;;;;;1.50;88.21;100680.78;5104558;28;20039;-63
2020/12/01 07:43:00;;;;;;;0.30;0.30;;;;;;;1.55;88.11;100674.16;5104646;28;20119;-62
2020/12/01 07:45:28;;;;;;;0.30;0.30;;;;;;;1.53;88.32;100681.78;5104320;28;20087;-62
2020/12/01 07:48:00;;;;;;;0.30;0.30;;;;;;;1.54;88.34;100685.19;5120219;28;20019;-63
2020/12/01 07:50:27;;;;;;;0.32;0.32;;;;;;;1.57;87.97;100690.41;5104444;28;20023;-62
2020/12/01 07:53:07;;;;;;;0.40;0.40;;;;;;;1.53;88.38;100692.00;5104387;28;20028;-63
2020/12/01 07:55:57;;;;;;;0.30;0.30;;;;;;;1.60;88.20;100690.50;5104140;28;20016;-63
2020/12/01 07:58:24;;;;;;;0.30;0.30;;;;;;;1.54;88.30;100698.84;5104255;28;20020;-63
2020/12/01 08:00:56;;;;;;;0.30;0.30;;;;;;;1.52;88.36;100710.72;5104221;28;20020;-63
2020/12/01 08:03:37;;;;;;;0.40;0.40;;;;;;;1.56;88.45;100712.59;5104368;28;20351;-63
2020/12/01 08:06:14;;;;;;;0.38;0.38;;;;;;;1.65;88.21;100713.69;5103872;28;20030;-63
2020/12/01 08:08:42;;;;;;;0.30;0.30;;;;;;;1.58;88.28;100720.31;5103828;28;20039;-62
2020/12/01 08:11:12;;;;;;;0.30;0.30;;;;;;;1.60;88.24;100719.53;5103998;28;20368;-62
2020/12/01 08:13:39;;;;;;;0.30;0.30;;;;;;;1.61;88.23;100722.97;5103846;28;20099;-62
2020/12/01 08:16:15;;;;;;;0.40;0.40;;;;;;;1.65;87.99;100732.47;5103864;28;20099;-62
2020/12/01 08:18:40;;;;;;;3.40;2.35;;;;;;;1.71;87.89;100737.81;5103824;28;20027;-62
2020/12/01 08:21:07;;;;;;;0.60;0.60;;;;;;;1.67;87.93;100745.34;5103722;28;20131;-63
2020/12/01 08:23:33;;;;;;;0.30;0.30;;;;;;;1.68;87.41;100744.50;5103758;28;20027;-62
2020/12/01 08:26:17;;;;;;;0.30;0.30;;;;;;;1.67;88.07;100743.66;5103386;28;20107;-63
2020/12/01 08:28:58;;;;;;;0.30;0.30;;;;;;;1.73;87.74;100746.41;5102762;28;20049;-62
2020/12/01 08:31:34;;;;;;;0.30;0.30;;;;;;;1.70;88.15;100746.31;5102650;28;20054;-63
2020/12/01 08:34:09;;;;;;;0.20;0.20;;;;;;;1.64;88.33;100738.44;5103515;28;20077;-63
2020/12/01 08:37:01;;;;;;;0.30;0.30;;;;;;;1.93;87.67;100753.88;5119423;28;20024;-63
2020/12/01 08:39:38;;;;;;;0.55;0.55;;;;;;;1.86;87.66;100751.94;5094528;28;20352;-62
2020/12/01 08:42:22;;;;;;;0.30;0.30;;;;;;;1.85;87.64;100756.19;5103839;28;20024;-62
2020/12/01 08:44:57;;;;;;;0.20;0.20;;;;;;;1.85;87.98;100750.22;5103550;28;20234;-62
2020/12/01 08:47:24;;;;;;;0.20;0.20;;;;;;;1.88;87.95;100749.44;5103678;28;20059;-62
2020/12/01 08:49:51;;;;;;;0.45;0.45;;;;;;;1.92;88.26;100758.94;5103635;28;20077;-62
2020/12/01 08:52:27;;;;;;;0.30;0.30;;;;;;;1.95;88.56;100766.75;5103663;28;20035;-62
2020/12/01 08:55:13;;;;;;;0.30;0.30;;;;;;;2.05;88.04;100785.81;5103405;28;20434;-62
2020/12/01 08:57:39;;;;;;;0.40;0.40;;;;;;;2.13;87.95;100781.81;5103612;28;20031;-63
2020/12/01 09:00:07;;;;;;;0.30;0.30;;;;;;;2.12;87.83;100789.47;5103337;28;20020;-63
2020/12/01 09:02:42;;;;;;;0.20;0.20;;;;;;;2.20;87.85;100791.47;5103676;28;20036;-63
2020/12/01 09:05:20;;;;;;;1.45;1.40;;;;;;;2.20;87.36;100803.41;5103737;28;20039;-63
2020/12/01 09:07:47;;;;;;;0.30;0.30;;;;;;;2.19;87.22;100797.41;5103555;28;20032;-63
2020/12/01 09:10:24;;;;;;;0.90;0.90;;;;;;;2.20;86.91;100793.16;5103186;28;20020;-61
2020/12/01 09:18:47;;;;;;;0.30;0.30;;;;;;;2.25;87.02;100814.69;5107327;28;20092;-61
2020/12/01 09:24:16;;;;;;;0.30;0.30;;;;;;;2.32;86.69;100831.09;5107136;28;20035;-61
2020/12/01 09:26:41;;;;;;;1.75;1.40;;;;;;;2.38;86.27;100833.84;5107540;28;20049;-62
2020/12/01 09:29:07;;;;;;;0.50;0.50;;;;;;;2.27;86.71;100827.53;5106966;28;20107;-62
2020/12/01 09:31:37;;;;;;;0.22;0.22;;;;;;;2.32;86.79;100833.66;5107237;28;20107;-62
2020/12/01 09:34:02;;;;;;;0.30;0.30;;;;;;;2.29;87.27;100836.13;5106959;28;20359;-63
2020/12/01 09:36:28;;;;;;;0.30;0.30;;;;;;;2.33;87.41;100840.53;5107075;28;20045;-62
2020/12/01 09:38:54;;;;;;;0.30;0.30;;;;;;;2.52;86.47;100848.81;5106235;28;20020;-62
2020/12/01 09:41:24;;;;;;;0.30;0.30;;;;;;;2.49;86.64;100847.03;5105862;28;20087;-62
2020/12/01 09:46:41;;;;;;;0.30;0.30;;;;;;;2.55;86.45;100859.16;5106929;28;20158;-63
2020/12/01 09:49:06;;;;;;;0.40;0.40;;;;;;;2.46;86.53;100860.59;5106536;28;20056;-64
2020/12/01 09:51:32;;;;;;;0.20;0.20;;;;;;;2.50;86.95;100869.28;5106781;28;20062;-63
2020/12/01 09:56:55;;;;;;;0.30;0.30;;;;;;;2.58;87.01;100870.41;5106820;28;20073;-63
2020/12/01 10:09:47;;;;;;;0.30;0.30;;;;;;;2.79;87.17;100881.28;5105968;28;20027;-64
2020/12/01 10:35:49;;;;;;;0.20;0.20;;;;;;;3.80;86.98;100938.13;5105794;28;20043;-62
2020/12/01 10:38:14;;;;;;;0.30;0.30;;;;;;;3.95;86.62;100945.38;5105884;28;20023;-63
2020/12/01 10:40:39;;;;;;;0.20;0.20;;;;;;;4.11;86.87;100938.09;5105804;28;20016;-63
2020/12/01 10:43:06;;;;;;;0.30;0.30;;;;;;;4.14;85.22;100938.19;5105557;28;20077;-63
2020/12/01 10:45:32;;;;;;;2.63;1.55;;;;;;;3.97;84.62;100942.88;5105912;28;20095;-63
2020/12/01 10:47:57;;;;;;;0.20;0.20;;;;;;;3.80;84.70;100948.38;5105785;28;20051;-62
2020/12/01 10:50:28;;;;;;;0.20;0.20;;;;;;;3.74;84.07;100963.63;5105373;28;20027;-63
2020/12/01 10:52:54;;;;;;;0.28;0.28;;;;;;;3.62;84.53;100958.16;5105624;28;20031;-63
2020/12/01 10:55:29;;;;;;;0.30;0.30;;;;;;;3.60;84.04;100965.81;5105218;28;20024;-62
2020/12/01 10:57:55;;;;;;;0.30;0.30;;;;;;;3.58;84.92;100957.16;5105495;28;20487;-62
2020/12/01 11:00:23;;;;;;;0.30;0.30;;;;;;;3.59;84.46;100966.63;5105297;28;20024;-63
2020/12/01 11:02:48;;;;;;;0.30;0.30;;;;;;;3.60;85.09;100955.53;5121106;28;20056;-63
2020/12/01 11:05:24;;;;;;;0.20;0.20;;;;;;;3.66;84.83;100955.69;5105223;28;20047;-63
2020/12/01 11:07:49;;;;;;;0.20;0.20;;;;;;;3.67;85.17;100965.16;5105224;28;20088;-63
2020/12/01 11:10:15;;;;;;;0.20;0.20;;;;;;;3.78;85.34;100975.75;5104914;28;20028;-63
2020/12/01 11:12:40;;;;;;;0.30;0.30;;;;;;;3.91;85.83;100976.97;5105356;28;20024;-63
2020/12/01 11:15:06;;;;;;;0.22;0.22;;;;;;;4.24;85.69;100970.13;5104914;28;20087;-63
2020/12/01 11:17:32;;;;;;;0.30;0.30;;;;;;;4.64;84.75;100974.56;5105369;28;20035;-64
2020/12/01 11:19:57;;;;;;;0.20;0.20;;;;;;;4.61;83.96;100972.81;5104976;28;20023;-64
2020/12/01 11:22:23;;;;;;;0.28;0.28;;;;;;;4.58;84.06;100985.59;5105170;28;20032;-63
2020/12/01 11:24:48;;;;;;;0.30;0.30;;;;;;;4.54;84.16;100978.59;5104908;28;20016;-63
2020/12/01 11:27:13;;;;;;;0.32;0.32;;;;;;;4.45;84.46;100980.13;5105224;28;20024;-63
2020/12/01 11:29:39;;;;;;;0.20;0.20;;;;;;;4.42;84.89;100987.75;5104692;28;20589;-63
2020/12/01 11:32:04;;;;;;;0.20;0.20;;;;;;;4.45;84.21;100995.56;5105034;28;20023;-63
2020/12/01 11:34:30;;;;;;;0.30;0.30;;;;;;;4.32;83.30;101004.63;5104582;28;20044;-62
2020/12/01 11:36:55;;;;;;;1.90;1.75;;;;;;;4.21;83.70;101008.63;5104809;28;20039;-62
2020/12/01 11:39:21;;;;;;;0.30;0.30;;;;;;;4.17;84.30;101007.66;5103698;28;20073;-62
2020/12/01 11:41:47;;;;;;;0.30;0.30;;;;;;;4.19;84.50;101021.41;5104961;28;20020;-62
2020/12/01 11:44:13;;;;;;;2.47;2.38;;;;;;;4.19;85.03;101013.72;5104766;28;20044;-62
2020/12/01 11:46:40;;;;;;;0.20;0.20;;;;;;;4.29;85.03;101026.81;5104873;28;20046;-63
2020/12/01 11:49:05;;;;;;;0.22;0.22;;;;;;;4.28;85.02;101017.38;5104611;28;20098;-63
2020/12/01 11:51:33;;;;;;;0.30;0.30;;;;;;;4.36;85.12;101015.84;5104654;28;20388;-62
2020/12/01 11:53:58;;;;;;;0.25;0.25;;;;;;;4.32;84.69;101016.63;5104188;28;20034;-61
2020/12/01 11:56:24;;;;;;;0.20;0.20;;;;;;;4.31;84.95;101018.31;5104583;28;20031;-62
2020/12/01 11:58:50;;;;;;;0.38;0.38;;;;;;;4.32;84.75;101016.63;5104397;28;20173;-62
2020/12/01 12:01:16;;;;;;;1.30;1.30;;;;;;;4.25;84.30;101017.28;5104624;28;20032;-62
2020/12/01 12:03:42;;;;;;;1.65;1.48;;;;;;;4.18;84.37;101017.13;5120145;28;20024;-62
2020/12/01 12:06:09;;;;;;;0.20;0.20;;;;;;;4.17;84.22;101010.22;5104460;28;20024;-62
2020/12/01 12:08:34;;;;;;;0.30;0.30;;;;;;;4.17;84.21;101007.66;5102977;28;20028;-62
2020/12/01 12:11:00;;;;;;;0.30;0.30;;;;;;;4.13;84.48;101013.53;5104102;28;20031;-62
2020/12/01 12:13:27;;;;;;;0.20;0.20;;;;;;;4.20;84.41;101025.72;5104228;28;20122;-62
2020/12/01 12:15:52;;;;;;;0.20;0.20;;;;;;;4.22;84.62;101024.06;5103955;28;20028;-62
2020/12/01 12:18:18;;;;;;;0.30;0.30;;;;;;;4.21;84.64;101027.47;5103979;28;20036;-61
2020/12/01 12:20:43;;;;;;;0.20;0.20;;;;;;;4.26;84.76;101029.31;5103946;28;20442;-61
2020/12/01 12:23:08;;;;;;;0.30;0.30;;;;;;;4.24;84.64;101034.41;5119866;28;20031;-62
2020/12/01 12:25:33;;;;;;;0.68;0.68;;;;;;;4.24;84.65;101036.97;5103880;28;20034;-62
2020/12/01 12:27:59;;;;;;;0.30;0.30;;;;;;;4.23;84.55;101024.97;5104165;28;20038;-62
2020/12/01 12:30:24;;;;;;;0.30;0.30;;;;;;;4.25;84.20;101032.72;5103112;28;20507;-62
2020/12/01 12:32:50;;;;;;;0.60;0.60;;;;;;;4.19;83.81;101030.81;5103106;28;20076;-62
2020/12/01 12:35:15;;;;;;;0.30;0.30;;;;;;;4.17;84.12;101030.78;5102824;28;20040;-62
2020/12/01 12:37:40;;;;;;;0.47;0.47;;;;;;;4.18;83.99;101036.81;5103209;28;20040;-62
2020/12/01 12:40:06;;;;;;;0.50;0.50;;;;;;;4.17;84.28;101046.19;5102638;28;20024;-62